createdAt,value
2023-04-06T00:01:22.360Z,6.47
2023-04-06T00:04:26.197Z,12.10
2023-04-06T00:07:31.098Z,10.17
2023-04-06T00:10:35.123Z,9.50
2023-04-06T00:13:38.936Z,8.77
2023-04-06T00:16:44.253Z,7.00
2023-04-06T00:19:48.069Z,9.50
2023-04-06T00:22:51.832Z,10.53
2023-04-06T00:25:55.712Z,9.10
2023-04-06T00:29:00.370Z,9.77
2023-04-06T00:32:05.768Z,9.70
2023-04-06T00:35:10.027Z,6.87
2023-04-06T00:38:14.454Z,9.07
2023-04-06T00:41:18.298Z,11.17
2023-04-06T00:44:22.610Z,10.47
2023-04-06T00:47:28.413Z,11.23
2023-04-06T00:50:32.169Z,8.73
2023-04-06T00:53:36.136Z,11.93
2023-04-06T00:56:39.948Z,12.10
2023-04-06T00:59:43.995Z,8.07
2023-04-06T01:02:51.161Z,9.40
2023-04-06T01:05:59.567Z,11.37
2023-04-06T01:09:11.218Z,10.63
2023-04-06T01:12:15.329Z,12.37
2023-04-06T01:15:19.995Z,10.07
2023-04-06T01:18:32.499Z,11.83
2023-04-06T01:21:58.522Z,10.17
2023-04-06T01:25:11.615Z,10.93
2023-04-06T01:28:41.171Z,9.67
2023-04-06T01:31:59.302Z,10.03
2023-04-06T01:35:03.356Z,9.57
2023-04-06T01:38:09.649Z,10.63
2023-04-06T01:41:16.460Z,9.77
2023-04-06T01:44:27.704Z,10.00
2023-04-06T01:47:42.462Z,12.17
2023-04-06T01:50:46.656Z,10.63
2023-04-06T01:53:56.445Z,8.17
2023-04-06T01:57:09.548Z,9.93
2023-04-06T02:00:28.218Z,12.33
2023-04-06T02:03:33.096Z,10.53
2023-04-06T02:06:43.755Z,11.30
2023-04-06T02:09:49.959Z,9.80
2023-04-06T02:13:03.465Z,9.30
2023-04-06T02:16:09.042Z,11.07
2023-04-06T02:19:13.001Z,13.63
2023-04-06T02:22:17.763Z,10.27
2023-04-06T02:25:22.604Z,6.47
2023-04-06T02:28:27.910Z,10.77
2023-04-06T02:31:31.775Z,11.23
2023-04-06T02:34:36.088Z,9.17
2023-04-06T02:37:39.890Z,12.83
2023-04-06T02:40:43.910Z,12.17
2023-04-06T02:43:59.518Z,9.70
2023-04-06T02:47:14.842Z,11.27
2023-04-06T02:50:24.142Z,16.47
2023-04-06T02:53:35.451Z,13.97
2023-04-06T02:56:39.897Z,13.03
2023-04-06T02:59:46.396Z,14.47
2023-04-06T03:02:56.545Z,12.03
2023-04-06T03:06:02.216Z,10.50
2023-04-06T03:09:09.077Z,9.53
2023-04-06T03:12:14.027Z,9.70
2023-04-06T03:15:39.443Z,10.83
2023-04-06T03:18:51.003Z,11.67
2023-04-06T03:21:55.143Z,9.93
2023-04-06T03:25:03.429Z,9.87
2023-04-06T03:28:09.333Z,8.80
2023-04-06T03:31:22.160Z,15.33
2023-04-06T03:34:55.224Z,12.30
2023-04-06T03:37:59.033Z,9.43
2023-04-06T03:41:04.154Z,14.63
2023-04-06T03:44:08.562Z,12.43
2023-04-06T03:47:13.892Z,9.20
2023-04-06T03:50:18.383Z,14.57
2023-04-06T03:53:22.487Z,12.60
2023-04-06T03:56:27.795Z,14.30
2023-04-06T03:59:31.846Z,9.70
2023-04-06T04:02:37.312Z,14.90
2023-04-06T04:05:41.570Z,14.27
2023-04-06T04:08:45.984Z,11.77
2023-04-06T04:11:49.736Z,15.63
2023-04-06T04:14:53.542Z,14.77
2023-04-06T04:17:59.046Z,13.87
2023-04-06T04:21:02.960Z,9.47
2023-04-06T04:24:07.734Z,10.93
2023-04-06T04:27:13.624Z,12.87
2023-04-06T04:30:19.260Z,15.40
2023-04-06T04:33:24.798Z,9.53
2023-04-06T04:36:32.367Z,11.50
2023-04-06T04:39:39.287Z,12.73
2023-04-06T04:42:44.550Z,13.53
2023-04-06T04:45:55.182Z,10.27
2023-04-06T04:49:15.700Z,10.27
2023-04-06T04:52:20.857Z,9.33
2023-04-06T04:55:33.525Z,12.83
2023-04-06T04:58:38.883Z,10.97
2023-04-06T05:01:54.327Z,14.50
2023-04-06T05:05:04.629Z,9.87
2023-04-06T05:08:08.637Z,10.97
2023-04-06T05:11:20.192Z,11.30
2023-04-06T05:14:31.618Z,10.73
2023-04-06T05:17:38.670Z,12.43
2023-04-06T05:20:46.544Z,11.97
2023-04-06T05:23:50.879Z,11.93
2023-04-06T05:26:55.809Z,12.70
2023-04-06T05:30:02.006Z,12.27
2023-04-06T05:33:09.605Z,13.33
2023-04-06T05:36:28.171Z,13.20
2023-04-06T05:39:32.894Z,15.67
2023-04-06T05:42:39.830Z,12.33
2023-04-06T05:45:43.977Z,9.10
2023-04-06T05:48:48.027Z,13.87
2023-04-06T05:51:54.792Z,8.27
2023-04-06T05:54:59.784Z,12.73
2023-04-06T05:58:04.550Z,14.03
2023-04-06T06:01:10.207Z,5.50
2023-04-06T06:04:19.090Z,8.37
2023-04-06T06:07:26.717Z,7.63
2023-04-06T06:10:36.248Z,14.13
2023-04-06T06:13:40.463Z,9.40
2023-04-06T06:16:45.853Z,15.93
2023-04-06T06:19:52.402Z,10.37
2023-04-06T06:22:58.572Z,11.53
2023-04-06T06:26:02.575Z,6.20
2023-04-06T06:29:07.727Z,10.13
2023-04-06T06:32:14.624Z,10.93
2023-04-06T06:35:19.940Z,9.70
2023-04-06T06:38:27.196Z,9.83
2023-04-06T06:41:32.179Z,11.07
2023-04-06T06:44:36.350Z,8.00
2023-04-06T06:47:40.364Z,8.70
2023-04-06T06:50:44.405Z,7.60
2023-04-06T06:53:51.337Z,7.27
2023-04-06T06:56:55.630Z,12.70
2023-04-06T07:00:01.225Z,10.67
2023-04-06T07:03:06.686Z,7.50
2023-04-06T07:06:11.291Z,9.00
2023-04-06T07:09:19.125Z,14.27
2023-04-06T07:12:23.187Z,8.53
2023-04-06T07:15:27.396Z,9.23
2023-04-06T07:18:32.873Z,12.67
2023-04-06T07:21:38.218Z,9.67
2023-04-06T07:24:43.731Z,8.97
2023-04-06T07:27:47.906Z,7.90
2023-04-06T07:30:52.757Z,7.07
2023-04-06T07:33:56.688Z,6.00
2023-04-06T07:37:03.970Z,5.63
2023-04-06T07:40:11.989Z,7.33
2023-04-06T07:43:17.600Z,8.00
2023-04-06T07:46:21.699Z,8.13
2023-04-06T07:49:25.956Z,7.50
2023-04-06T07:52:30.641Z,7.60
2023-04-06T07:55:36.066Z,8.33
2023-04-06T07:58:40.222Z,8.63
2023-04-06T08:01:44.244Z,9.13
2023-04-06T08:04:48.349Z,6.97
2023-04-06T08:07:52.333Z,7.97
2023-04-06T08:10:59.447Z,7.93
2023-04-06T08:14:04.592Z,8.13
2023-04-06T08:17:08.650Z,9.10
2023-04-06T08:20:13.176Z,9.03
2023-04-06T08:23:17.456Z,9.00
2023-04-06T08:26:22.807Z,6.50
2023-04-06T08:29:26.790Z,11.47
2023-04-06T08:32:30.708Z,10.03
2023-04-06T08:35:34.845Z,10.77
2023-04-06T08:38:38.923Z,5.73
2023-04-06T08:41:46.247Z,8.63
2023-04-06T08:44:52.528Z,8.60
2023-04-06T08:48:00.312Z,7.57
2023-04-06T08:51:05.161Z,7.33
2023-04-06T08:54:09.286Z,6.30
2023-04-06T08:57:15.079Z,8.03
2023-04-06T09:00:20.798Z,6.50
2023-04-06T09:03:27.014Z,6.70
2023-04-06T09:06:32.174Z,6.07
2023-04-06T09:09:36.218Z,6.80
2023-04-06T09:12:41.609Z,8.70
2023-04-06T09:15:45.631Z,6.40
2023-04-06T09:18:49.665Z,4.60
2023-04-06T09:22:04.502Z,3.87
2023-04-06T09:25:09.617Z,4.10
2023-04-06T09:28:15.054Z,8.13
2023-04-06T09:31:24.446Z,3.40
2023-04-06T09:34:28.567Z,3.53
2023-04-06T09:37:32.692Z,4.53
2023-04-06T09:40:37.754Z,4.33
2023-04-06T09:43:43.974Z,4.87
2023-04-06T09:46:58.843Z,4.40
2023-04-06T09:50:05.459Z,5.13
2023-04-06T09:53:10.015Z,5.00
2023-04-06T09:56:19.765Z,5.33
2023-04-06T09:59:31.662Z,4.30
2023-04-06T10:02:43.936Z,6.40
2023-04-06T10:05:54.893Z,5.57
2023-04-06T10:08:59.730Z,5.27
2023-04-06T10:12:05.648Z,5.20
2023-04-06T10:15:12.400Z,7.80
2023-04-06T10:18:17.140Z,8.20
2023-04-06T10:21:26.241Z,4.87
2023-04-06T10:24:30.205Z,6.77
2023-04-06T10:27:35.784Z,4.53
2023-04-06T10:30:45.776Z,5.03
2023-04-06T10:33:57.683Z,4.67
2023-04-06T10:37:01.768Z,6.60
2023-04-06T10:40:06.598Z,9.17
2023-04-06T10:43:11.522Z,5.10
2023-04-06T10:46:28.013Z,5.93
2023-04-06T10:49:32.093Z,6.43
2023-04-06T10:52:36.023Z,4.90
2023-04-06T10:55:43.265Z,4.27
2023-04-06T10:58:48.750Z,3.90
2023-04-06T11:01:54.405Z,3.83
2023-04-06T11:04:59.530Z,4.13
2023-04-06T11:08:03.546Z,4.27
2023-04-06T11:11:09.061Z,3.70
2023-04-06T11:14:13.179Z,4.13
2023-04-06T11:17:18.706Z,5.23
2023-04-06T11:20:22.698Z,5.03
2023-04-06T11:23:27.440Z,4.63
2023-04-06T11:26:31.257Z,8.20
2023-04-06T11:29:38.005Z,5.50
2023-04-06T11:32:48.565Z,6.00
2023-04-06T11:35:52.859Z,4.80
2023-04-06T11:38:58.840Z,8.67
2023-04-06T11:42:07.585Z,5.20
2023-04-06T11:45:18.338Z,6.27
2023-04-06T11:48:25.437Z,5.83
2023-04-06T11:51:30.620Z,4.87
2023-04-06T11:54:36.105Z,4.70
2023-04-06T11:57:40.159Z,4.77
2023-04-06T12:00:47.532Z,4.60
2023-04-06T12:03:54.187Z,5.37
2023-04-06T12:06:58.360Z,6.17
2023-04-06T12:10:03.909Z,5.67
2023-04-06T12:13:08.022Z,5.13
2023-04-06T12:16:12.096Z,7.40
2023-04-06T12:19:17.514Z,8.40
2023-04-06T12:22:21.513Z,6.83
2023-04-06T12:25:25.536Z,10.93
2023-04-06T12:28:29.523Z,6.87
2023-04-06T12:31:33.791Z,6.93
2023-04-06T12:34:40.352Z,7.10
2023-04-06T12:37:44.797Z,6.53
2023-04-06T12:40:48.647Z,6.07
2023-04-06T12:43:52.918Z,10.23
2023-04-06T12:46:56.911Z,8.47
2023-04-06T12:50:02.401Z,7.73
2023-04-06T12:53:06.387Z,5.13
2023-04-06T12:56:15.945Z,6.73
2023-04-06T12:59:22.218Z,7.70
2023-04-06T13:02:27.585Z,21.40
2023-04-06T13:05:33.673Z,9.83
2023-04-06T13:08:38.422Z,6.43
2023-04-06T13:11:42.760Z,6.80
2023-04-06T13:14:48.666Z,6.53
2023-04-06T13:17:55.044Z,7.30
2023-04-06T13:21:01.920Z,6.73
2023-04-06T13:24:07.010Z,8.03
2023-04-06T13:27:11.039Z,7.87
2023-04-06T13:30:17.292Z,7.47
2023-04-06T13:33:21.940Z,7.10
2023-04-06T13:36:29.237Z,7.07
2023-04-06T13:39:34.495Z,7.77
2023-04-06T13:42:39.174Z,6.60
2023-04-06T13:45:43.092Z,6.50
2023-04-06T13:48:48.279Z,7.30
2023-04-06T13:51:53.889Z,6.40
2023-04-06T13:54:57.764Z,4.97
2023-04-06T13:58:01.614Z,7.27
2023-04-06T14:01:07.625Z,6.57
2023-04-06T14:04:12.123Z,6.83
2023-04-06T14:07:17.303Z,6.00
2023-04-06T14:10:23.125Z,6.17
2023-04-06T14:13:27.664Z,5.00
2023-04-06T14:16:32.656Z,6.03
2023-04-06T14:19:37.465Z,5.30
2023-04-06T14:22:43.969Z,6.57
2023-04-06T14:25:48.152Z,8.83
2023-04-06T14:28:53.170Z,5.57
2023-04-06T14:32:01.350Z,5.57
2023-04-06T14:35:07.083Z,7.97
2023-04-06T14:38:12.907Z,7.27
2023-04-06T14:41:20.036Z,7.80
2023-04-06T14:44:24.197Z,7.10
2023-04-06T14:47:28.144Z,7.17
2023-04-06T14:50:31.971Z,7.40
2023-04-06T14:53:37.215Z,10.30
2023-04-06T14:56:40.982Z,9.17
2023-04-06T14:59:44.756Z,8.47
2023-04-06T15:02:48.807Z,7.70
2023-04-06T15:05:52.751Z,6.47
2023-04-06T15:08:57.988Z,5.00
2023-04-06T15:12:02.031Z,6.47
2023-04-06T15:15:06.763Z,6.43
2023-04-06T15:18:10.708Z,7.37
2023-04-06T15:21:14.549Z,6.27
2023-04-06T15:24:19.892Z,6.20
2023-04-06T15:27:23.717Z,6.13
2023-04-06T15:30:27.681Z,10.80
2023-04-06T15:33:31.486Z,6.43
2023-04-06T15:36:35.380Z,8.27
2023-04-06T15:39:40.668Z,7.77
2023-04-06T15:42:44.845Z,8.70
2023-04-06T15:45:48.957Z,7.53
2023-04-06T15:48:52.845Z,10.90
2023-04-06T15:55:02.469Z,6.93
2023-04-06T15:58:07.408Z,6.87
2023-04-06T16:01:15.901Z,8.27
2023-04-06T16:04:19.847Z,8.60
2023-04-06T16:07:23.770Z,10.37
2023-04-06T16:10:29.022Z,10.33
2023-04-06T16:13:32.978Z,9.57
2023-04-06T16:16:36.875Z,9.63
2023-04-06T16:19:41.061Z,8.80
2023-04-06T16:22:44.967Z,8.97
2023-04-06T16:25:50.658Z,7.77
2023-04-06T16:28:54.970Z,10.63
2023-04-06T16:31:58.920Z,9.90
2023-04-06T16:35:03.777Z,8.67
2023-04-06T16:38:07.642Z,13.67
2023-04-06T16:41:12.945Z,10.67
2023-04-06T16:44:16.708Z,11.73
2023-04-06T16:47:20.580Z,11.83
2023-04-06T16:50:24.408Z,10.10
2023-04-06T16:53:28.311Z,9.83
2023-04-06T16:56:33.790Z,14.50
2023-04-06T16:59:37.582Z,8.93
2023-04-06T17:02:41.872Z,11.67
2023-04-06T17:05:46.046Z,9.63
2023-04-06T17:08:51.425Z,9.37
2023-04-06T17:11:57.090Z,11.17
2023-04-06T17:15:00.821Z,9.70
2023-04-06T17:18:04.867Z,9.90
2023-04-06T17:21:10.525Z,10.23
2023-04-06T17:24:14.377Z,11.63
2023-04-06T17:27:23.180Z,12.40
2023-04-06T17:30:27.726Z,9.43
2023-04-06T17:33:32.839Z,9.40
2023-04-06T17:36:36.680Z,14.63
2023-04-06T17:39:40.591Z,11.03
2023-04-06T17:42:45.837Z,9.87
2023-04-06T17:45:51.216Z,9.83
2023-04-06T17:48:55.029Z,9.23
2023-04-06T17:51:58.860Z,10.23
2023-04-06T17:55:02.785Z,9.27
2023-04-06T17:58:07.913Z,9.40
2023-04-06T18:01:12.503Z,10.30
2023-04-06T18:04:16.333Z,9.03
2023-04-06T18:07:20.245Z,9.37
2023-04-06T18:10:24.183Z,12.10
2023-04-06T18:13:29.469Z,6.43
2023-04-06T18:19:42.819Z,10.23
2023-04-06T18:22:46.680Z,8.93
2023-04-06T18:25:50.661Z,10.07
2023-04-06T18:28:56.248Z,8.83
2023-04-06T18:32:00.021Z,9.83
2023-04-06T18:35:04.158Z,11.50
2023-04-06T18:38:08.065Z,14.40
2023-04-06T18:41:11.893Z,15.20
2023-04-06T18:44:17.102Z,14.27
2023-04-06T18:47:21.061Z,12.07
2023-04-06T18:50:24.907Z,13.50
2023-04-06T18:53:29.004Z,14.23
2023-04-06T18:56:32.797Z,11.63
2023-04-06T18:59:38.295Z,13.90
2023-04-06T19:02:42.436Z,12.60
2023-04-06T19:05:46.509Z,12.60
2023-04-06T19:08:51.104Z,10.43
2023-04-06T19:11:54.959Z,14.83
2023-04-06T19:15:00.973Z,14.40
2023-04-06T19:18:04.854Z,13.33
2023-04-06T19:21:16.538Z,14.37
2023-04-06T19:24:20.331Z,11.03
2023-04-06T19:27:24.301Z,13.23
2023-04-06T19:30:29.564Z,13.10
2023-04-06T19:33:33.485Z,12.47
2023-04-06T19:36:37.476Z,16.70
2023-04-06T19:39:44.336Z,10.47
2023-04-06T19:42:48.124Z,12.00
2023-04-06T19:45:53.938Z,12.67
2023-04-06T19:48:57.789Z,18.07
2023-04-06T19:52:01.604Z,17.93
2023-04-06T19:55:05.785Z,13.33
2023-04-06T19:58:09.697Z,16.30
2023-04-06T20:01:15.024Z,14.00
2023-04-06T20:04:19.000Z,16.30
2023-04-06T20:07:22.888Z,13.47
2023-04-06T20:10:26.694Z,8.73
2023-04-06T20:13:31.425Z,9.97
2023-04-06T20:16:37.033Z,15.17
2023-04-06T20:19:41.045Z,14.60
2023-04-06T20:22:45.047Z,12.93
2023-04-06T20:25:48.895Z,11.70
2023-04-06T20:28:52.753Z,10.73
2023-04-06T20:31:58.463Z,15.53
2023-04-06T20:35:02.440Z,15.13
2023-04-06T20:38:06.295Z,13.07
2023-04-06T20:41:10.508Z,14.50
2023-04-06T20:44:14.387Z,14.77
2023-04-06T20:47:19.702Z,10.43
2023-04-06T20:50:24.268Z,13.73
2023-04-06T20:53:28.078Z,16.53
2023-04-06T20:56:31.878Z,13.90
2023-04-06T20:59:35.753Z,14.60
2023-04-06T21:02:41.508Z,13.67
2023-04-06T21:05:52.051Z,10.03
2023-04-06T21:08:55.912Z,13.80
2023-04-06T21:11:59.745Z,11.80
2023-04-06T21:15:03.587Z,14.27
2023-04-06T21:18:33.969Z,12.13
2023-04-06T21:21:37.782Z,13.47
2023-04-06T21:24:42.210Z,18.20
2023-04-06T21:27:46.003Z,15.70
2023-04-06T21:30:49.930Z,10.67
2023-04-06T21:33:55.293Z,11.70
2023-04-06T21:36:59.458Z,13.83
2023-04-06T21:40:04.413Z,13.23
2023-04-06T21:43:08.244Z,12.37
2023-04-06T21:46:12.086Z,13.33
2023-04-06T21:49:17.438Z,12.23
2023-04-06T21:52:21.340Z,14.40
2023-04-06T21:55:25.113Z,14.93
2023-04-06T21:58:29.003Z,15.67
2023-04-06T22:01:32.845Z,16.03
2023-04-06T22:04:38.638Z,10.80
2023-04-06T22:07:42.494Z,12.23
2023-04-06T22:10:46.323Z,17.20
2023-04-06T22:13:50.120Z,12.70
2023-04-06T22:16:54.033Z,11.67
2023-04-06T22:19:59.295Z,10.70
2023-04-06T22:23:03.085Z,14.67
2023-04-06T22:26:06.995Z,14.20
2023-04-06T22:29:10.801Z,13.60
2023-04-06T22:32:14.612Z,14.97
2023-04-06T22:35:20.205Z,15.33
2023-04-06T22:38:24.085Z,10.87
2023-04-06T22:41:28.324Z,16.47
2023-04-06T22:44:32.290Z,15.70
2023-04-06T22:47:36.244Z,17.40
2023-04-06T22:50:41.954Z,12.67
2023-04-06T22:53:45.742Z,13.30
2023-04-06T22:56:49.517Z,14.77
2023-04-06T22:59:53.171Z,13.83
2023-04-06T23:02:57.429Z,17.43
2023-04-06T23:06:03.022Z,15.30
2023-04-06T23:09:06.988Z,18.80
2023-04-06T23:12:10.869Z,14.30
2023-04-06T23:15:14.693Z,13.83
2023-04-06T23:18:18.587Z,15.23
2023-04-06T23:21:24.003Z,15.43
2023-04-06T23:24:27.822Z,13.40
2023-04-06T23:27:31.746Z,13.03
2023-04-06T23:30:35.807Z,12.87
2023-04-06T23:33:39.533Z,12.50
2023-04-06T23:36:44.790Z,14.27
2023-04-06T23:39:49.520Z,13.70
2023-04-06T23:42:53.366Z,13.60
2023-04-06T23:45:57.361Z,14.10
2023-04-06T23:49:01.040Z,12.47
2023-04-06T23:52:06.276Z,12.93
2023-04-06T23:55:10.834Z,12.57
2023-04-06T23:58:14.477Z,11.90
